Time;durP1;ratioP1;P1;durP2;ratioP2;P2;SDS_P1;SDS_P2;PMS_P1;PMS_P2;Temp;Humidity;BMP_temperature;BMP_pressure;BME280_temperature;BME280_humidity;BME280_pressure;Samples;Min_cycle;Max_cycle;Signal;HPM_P1;HPM_P2
2021/09/12 00:02:18;;;;;;;;;11.00;11.00;;;;;;;;4965328;28;9958;-84
2021/09/12 00:04:45;;;;;;;;;8.67;8.67;;;;;;;;4968296;28;9899;-86
2021/09/12 00:07:12;;;;;;;;;14.67;14.67;;;;;;;;4965422;28;9890;-79
2021/09/12 00:09:40;;;;;;;;;17.00;17.00;;;;;;;;4968059;28;10143;-86
2021/09/12 00:12:08;;;;;;;;;10.33;10.33;;;;;;;;4967203;28;9248;-80
2021/09/12 00:14:36;;;;;;;;;24.25;20.50;;;;;;;;4969611;28;9218;-85
2021/09/12 00:17:03;;;;;;;;;13.33;13.33;;;;;;;;4967140;28;9519;-83
2021/09/12 00:19:32;;;;;;;;;12.33;12.33;;;;;;;;4963210;28;9221;-84
2021/09/12 00:21:59;;;;;;;;;11.00;11.00;;;;;;;;4966667;28;9311;-87
2021/09/12 00:24:27;;;;;;;;;11.33;10.00;;;;;;;;4948254;28;9220;-86
2021/09/12 00:26:54;;;;;;;;;11.00;9.67;;;;;;;;4968226;28;10042;-85
2021/09/12 00:29:22;;;;;;;;;12.33;11.00;;;;;;;;4965822;28;9221;-84
2021/09/12 00:31:49;;;;;;;;;11.00;9.33;;;;;;;;4964547;28;9321;-84
2021/09/12 00:34:17;;;;;;;;;9.00;9.00;;;;;;;;4966635;28;9342;-86
2021/09/12 00:36:46;;;;;;;;;10.00;10.00;;;;;;;;4966717;28;9280;-86
2021/09/12 00:39:13;;;;;;;;;11.33;8.33;;;;;;;;4969435;28;9302;-83
2021/09/12 00:41:43;;;;;;;;;10.00;10.00;;;;;;;;4966219;28;9303;-81
2021/09/12 00:44:12;;;;;;;;;5.33;5.33;;;;;;;;4965302;28;9247;-84
2021/09/12 00:46:40;;;;;;;;;8.33;5.67;;;;;;;;4966645;28;10054;-85
2021/09/12 00:49:07;;;;;;;;;19.33;15.67;;;;;;;;4966864;28;9236;-86
2021/09/12 00:51:35;;;;;;;;;14.00;11.67;;;;;;;;4966628;28;9515;-82
2021/09/12 00:54:05;;;;;;;;;13.67;10.33;;;;;;;;4965319;28;9283;-87
2021/09/12 00:56:33;;;;;;;;;12.00;10.67;;;;;;;;4965817;28;9311;-88
2021/09/12 00:59:01;;;;;;;;;57.00;47.25;;;;;;;;4961635;28;9299;-85
2021/09/12 01:01:28;;;;;;;;;13.25;12.00;;;;;;;;4964647;28;11074;-85
2021/09/12 01:03:56;;;;;;;;;8.67;8.67;;;;;;;;4963756;28;9516;-85
2021/09/12 01:06:23;;;;;;;;;5.67;5.67;;;;;;;;4963800;28;9287;-84
2021/09/12 01:08:50;;;;;;;;;10.00;10.00;;;;;;;;4965033;28;9291;-83
2021/09/12 01:11:19;;;;;;;;;10.00;10.00;;;;;;;;4965420;28;9299;-83
2021/09/12 01:13:47;;;;;;;;;9.33;9.33;;;;;;;;4966402;28;9330;-84
2021/09/12 01:16:16;;;;;;;;;9.33;9.33;;;;;;;;4966199;28;10131;-84
2021/09/12 01:18:44;;;;;;;;;5.00;5.00;;;;;;;;4956245;28;9311;-85
2021/09/12 01:21:12;;;;;;;;;8.67;8.67;;;;;;;;4965613;28;9363;-84
2021/09/12 01:23:40;;;;;;;;;9.00;9.00;;;;;;;;4964849;28;9438;-85
2021/09/12 01:26:09;;;;;;;;;9.67;9.33;;;;;;;;4964545;28;9341;-84
2021/09/12 01:28:40;;;;;;;;;8.00;8.00;;;;;;;;4964675;28;9529;-82
2021/09/12 01:31:08;;;;;;;;;12.50;12.50;;;;;;;;4968172;28;9356;-83
2021/09/12 01:33:35;;;;;;;;;33.50;31.25;;;;;;;;4964591;28;9479;-84
2021/09/12 01:36:03;;;;;;;;;14.00;14.00;;;;;;;;4965819;28;10141;-84
2021/09/12 01:38:30;;;;;;;;;14.00;9.67;;;;;;;;4964307;28;9514;-85
2021/09/12 01:40:57;;;;;;;;;11.33;11.33;;;;;;;;4962562;28;9585;-84
2021/09/12 01:43:26;;;;;;;;;10.33;10.33;;;;;;;;4964021;28;9534;-85
2021/09/12 01:45:53;;;;;;;;;8.00;6.33;;;;;;;;4965125;28;9380;-85
2021/09/12 01:48:20;;;;;;;;;11.00;11.00;;;;;;;;4965060;28;9306;-83
2021/09/12 01:50:48;;;;;;;;;11.33;10.00;;;;;;;;4962011;28;9597;-83
2021/09/12 01:53:15;;;;;;;;;15.00;10.00;;;;;;;;4963754;28;9475;-82
2021/09/12 01:55:42;;;;;;;;;9.00;9.00;;;;;;;;4963417;28;9258;-83
2021/09/12 01:58:10;;;;;;;;;13.00;11.33;;;;;;;;4965358;28;9315;-81
2021/09/12 02:00:39;;;;;;;;;15.00;11.33;;;;;;;;4963284;28;9204;-83
2021/09/12 02:03:06;;;;;;;;;10.67;10.67;;;;;;;;4964970;28;9406;-86
2021/09/12 02:05:33;;;;;;;;;12.00;12.00;;;;;;;;4968564;28;9222;-86
2021/09/12 02:08:01;;;;;;;;;11.33;11.33;;;;;;;;4964177;28;9155;-85
2021/09/12 02:10:29;;;;;;;;;10.33;10.33;;;;;;;;4964680;28;9194;-86
2021/09/12 02:12:57;;;;;;;;;10.00;10.00;;;;;;;;4964412;28;9388;-87
2021/09/12 02:15:25;;;;;;;;;10.00;10.00;;;;;;;;4963370;28;9089;-82
2021/09/12 02:17:53;;;;;;;;;8.67;8.67;;;;;;;;4961177;28;9030;-84
2021/09/12 02:20:21;;;;;;;;;11.67;11.67;;;;;;;;4964672;28;9055;-83
2021/09/12 02:22:48;;;;;;;;;11.33;10.00;;;;;;;;4964289;28;9097;-86
2021/09/12 02:25:15;;;;;;;;;12.33;12.33;;;;;;;;4964305;28;9364;-88
2021/09/12 02:27:43;;;;;;;;;15.67;11.00;;;;;;;;4963235;28;9284;-88
2021/09/12 02:30:11;;;;;;;;;10.67;10.67;;;;;;;;4964278;28;9062;-85
2021/09/12 02:32:38;;;;;;;;;9.33;9.33;;;;;;;;4965135;28;9147;-84
2021/09/12 02:35:08;;;;;;;;;10.00;10.00;;;;;;;;4962402;28;9117;-86
2021/09/12 02:37:36;;;;;;;;;9.67;9.67;;;;;;;;4966666;28;9138;-83
2021/09/12 02:40:04;;;;;;;;;10.67;10.67;;;;;;;;4966196;28;9078;-83
2021/09/12 02:42:32;;;;;;;;;13.33;13.33;;;;;;;;4963597;28;9133;-80
2021/09/12 02:44:59;;;;;;;;;10.67;10.33;;;;;;;;4963022;28;9840;-82
2021/09/12 02:47:26;;;;;;;;;13.67;10.00;;;;;;;;4962179;28;9601;-84
2021/09/12 02:49:54;;;;;;;;;9.67;9.67;;;;;;;;4963283;28;9134;-82
2021/09/12 02:52:22;;;;;;;;;10.00;10.00;;;;;;;;4963817;28;9065;-84
2021/09/12 02:54:49;;;;;;;;;11.67;11.67;;;;;;;;4963194;28;9094;-83
2021/09/12 02:57:18;;;;;;;;;11.00;11.00;;;;;;;;4963217;28;9064;-82
2021/09/12 02:59:45;;;;;;;;;12.67;11.33;;;;;;;;4962000;28;9268;-85
2021/09/12 03:02:13;;;;;;;;;14.33;13.33;;;;;;;;4960668;28;8938;-86
2021/09/12 03:04:40;;;;;;;;;13.00;13.00;;;;;;;;4964187;28;8957;-76
2021/09/12 03:07:07;;;;;;;;;13.33;13.00;;;;;;;;4962841;28;9048;-85
2021/09/12 03:09:36;;;;;;;;;12.75;12.75;;;;;;;;4961119;28;9054;-84
2021/09/12 03:12:04;;;;;;;;;15.33;14.00;;;;;;;;4963744;28;8996;-84
2021/09/12 03:14:31;;;;;;;;;11.00;11.00;;;;;;;;4963410;28;9138;-86
2021/09/12 03:16:58;;;;;;;;;11.50;11.50;;;;;;;;4964011;28;8888;-86
2021/09/12 03:19:25;;;;;;;;;16.33;15.67;;;;;;;;4964465;28;8869;-84
2021/09/12 03:21:53;;;;;;;;;11.50;11.50;;;;;;;;4962642;28;8993;-85
2021/09/12 03:24:20;;;;;;;;;14.50;11.00;;;;;;;;4965037;28;8873;-85
2021/09/12 03:26:49;;;;;;;;;12.00;12.00;;;;;;;;4962228;28;8881;-84
2021/09/12 03:29:16;;;;;;;;;14.00;13.00;;;;;;;;4963605;28;8869;-85
2021/09/12 03:31:43;;;;;;;;;13.25;13.25;;;;;;;;4961659;28;8847;-81
2021/09/12 03:34:11;;;;;;;;;15.75;13.50;;;;;;;;4963309;28;8988;-86
2021/09/12 03:36:38;;;;;;;;;13.25;12.25;;;;;;;;4964546;28;9015;-81
2021/09/12 03:39:05;;;;;;;;;10.75;10.75;;;;;;;;4962924;28;8936;-85
2021/09/12 03:41:33;;;;;;;;;13.00;13.00;;;;;;;;4964066;28;8889;-84
2021/09/12 03:44:02;;;;;;;;;11.75;11.75;;;;;;;;4962827;28;8873;-82
2021/09/12 03:46:29;;;;;;;;;14.25;12.75;;;;;;;;4959796;28;8899;-83
2021/09/12 03:48:57;;;;;;;;;12.00;11.25;;;;;;;;4963197;28;8886;-83
2021/09/12 03:51:24;;;;;;;;;14.75;12.00;;;;;;;;4963254;28;8992;-82
2021/09/12 03:53:51;;;;;;;;;7.00;7.00;;;;;;;;4962469;28;8869;-84
2021/09/12 03:56:19;;;;;;;;;11.50;11.50;;;;;;;;4960481;28;8885;-85
2021/09/12 03:58:46;;;;;;;;;13.75;10.75;;;;;;;;4963237;28;8885;-84
2021/09/12 04:01:15;;;;;;;;;12.75;12.75;;;;;;;;4957479;28;8834;-83
2021/09/12 04:03:42;;;;;;;;;11.00;10.25;;;;;;;;4961701;28;8894;-84
2021/09/12 04:06:09;;;;;;;;;19.50;19.00;;;;;;;;4962314;28;8911;-82
2021/09/12 04:08:37;;;;;;;;;12.00;11.25;;;;;;;;4962212;28;8884;-85
2021/09/12 04:11:04;;;;;;;;;11.75;10.25;;;;;;;;4962202;28;8992;-87
2021/09/12 04:13:31;;;;;;;;;8.75;8.75;;;;;;;;4962789;28;8887;-86
2021/09/12 04:15:58;;;;;;;;;9.25;9.25;;;;;;;;4959883;28;8897;-84
2021/09/12 04:18:27;;;;;;;;;11.75;11.75;;;;;;;;4962565;28;8877;-84
2021/09/12 04:20:55;;;;;;;;;12.50;11.75;;;;;;;;4961617;28;9796;-87
2021/09/12 04:23:22;;;;;;;;;11.75;11.75;;;;;;;;4961205;28;8901;-85
2021/09/12 04:25:50;;;;;;;;;13.25;10.50;;;;;;;;4958932;28;8903;-85
2021/09/12 04:28:17;;;;;;;;;10.00;10.00;;;;;;;;4962595;28;8884;-87
2021/09/12 04:30:44;;;;;;;;;12.50;11.00;;;;;;;;4961518;28;8836;-88
2021/09/12 04:33:12;;;;;;;;;12.25;10.50;;;;;;;;4959340;28;9631;-85
2021/09/12 04:35:41;;;;;;;;;10.50;10.50;;;;;;;;4959905;28;8912;-88
2021/09/12 04:38:08;;;;;;;;;6.50;6.50;;;;;;;;4963683;28;9643;-87
2021/09/12 04:40:35;;;;;;;;;9.75;9.75;;;;;;;;4960835;28;8891;-77
2021/09/12 04:43:03;;;;;;;;;7.75;7.75;;;;;;;;4966413;28;9062;-87
2021/09/12 04:45:30;;;;;;;;;10.75;10.75;;;;;;;;4965807;28;8876;-87
2021/09/12 04:47:57;;;;;;;;;5.25;5.25;;;;;;;;4967779;28;8899;-87
2021/09/12 04:50:25;;;;;;;;;11.00;11.00;;;;;;;;4960593;28;8968;-81
2021/09/12 04:52:53;;;;;;;;;9.33;9.33;;;;;;;;4966242;28;8985;-83
2021/09/12 04:55:21;;;;;;;;;10.00;10.00;;;;;;;;4966440;28;8952;-86
2021/09/12 04:57:48;;;;;;;;;10.67;9.00;;;;;;;;4960233;28;8976;-85
2021/09/12 05:00:16;;;;;;;;;9.25;9.25;;;;;;;;4965360;28;8986;-82
2021/09/12 05:02:43;;;;;;;;;10.33;9.67;;;;;;;;4964464;28;8996;-82
2021/09/12 05:05:12;;;;;;;;;10.67;10.67;;;;;;;;4964193;28;9121;-87
2021/09/12 05:07:39;;;;;;;;;9.33;9.33;;;;;;;;4964539;28;9029;-76
2021/09/12 05:10:10;;;;;;;;;9.00;9.00;;;;;;;;4965306;28;9055;-78
2021/09/12 05:12:37;;;;;;;;;15.00;11.00;;;;;;;;4970748;28;8985;-75
2021/09/12 05:15:06;;;;;;;;;12.00;10.00;;;;;;;;4965188;28;9117;-77
2021/09/12 05:17:33;;;;;;;;;10.00;10.00;;;;;;;;4965515;28;9295;-74
2021/09/12 05:20:00;;;;;;;;;10.00;10.00;;;;;;;;4961998;28;9139;-74
2021/09/12 05:22:27;;;;;;;;;8.00;8.00;;;;;;;;4957860;28;9207;-77
2021/09/12 05:24:55;;;;;;;;;10.00;8.33;;;;;;;;4955339;28;9307;-78
2021/09/12 05:27:24;;;;;;;;;10.67;9.67;;;;;;;;4952954;28;9236;-77
2021/09/12 05:29:52;;;;;;;;;11.67;10.00;;;;;;;;4952700;28;10038;-77
2021/09/12 05:32:19;;;;;;;;;11.33;11.33;;;;;;;;4954327;28;9351;-77
2021/09/12 05:34:46;;;;;;;;;10.67;10.67;;;;;;;;4953996;28;9288;-78
2021/09/12 05:37:13;;;;;;;;;10.00;10.00;;;;;;;;4960045;28;9470;-73
2021/09/12 05:39:41;;;;;;;;;15.67;10.00;;;;;;;;4962671;28;10637;-75
2021/09/12 05:42:09;;;;;;;;;10.00;10.00;;;;;;;;4964223;28;9449;-75
2021/09/12 05:44:38;;;;;;;;;9.00;9.00;;;;;;;;4964765;28;9457;-75
2021/09/12 05:47:05;;;;;;;;;12.00;10.00;;;;;;;;4966018;28;9500;-74
2021/09/12 05:49:32;;;;;;;;;14.33;11.67;;;;;;;;4965233;28;9439;-74
2021/09/12 05:51:59;;;;;;;;;12.00;12.00;;;;;;;;4960931;28;9466;-75
2021/09/12 05:54:27;;;;;;;;;13.50;13.00;;;;;;;;4964381;28;9460;-75
2021/09/12 05:56:54;;;;;;;;;10.75;10.25;;;;;;;;4966366;28;9856;-76
2021/09/12 05:59:21;;;;;;;;;10.50;10.50;;;;;;;;4963977;28;9641;-74
2021/09/12 06:01:50;;;;;;;;;9.25;9.25;;;;;;;;4963739;28;9609;-74
2021/09/12 06:04:18;;;;;;;;;10.00;10.00;;;;;;;;4964282;28;9572;-74
2021/09/12 06:06:45;;;;;;;;;13.75;13.50;;;;;;;;4964937;28;9644;-75
2021/09/12 06:09:12;;;;;;;;;9.00;9.00;;;;;;;;4965897;28;9729;-75
2021/09/12 06:11:40;;;;;;;;;12.25;12.00;;;;;;;;4960684;28;9655;-77
2021/09/12 06:14:07;;;;;;;;;14.00;11.50;;;;;;;;4964401;28;10343;-73
2021/09/12 06:16:34;;;;;;;;;11.25;10.75;;;;;;;;4959187;28;9482;-75
2021/09/12 06:19:03;;;;;;;;;16.25;16.25;;;;;;;;4959605;28;10365;-74
2021/09/12 06:21:30;;;;;;;;;10.75;10.75;;;;;;;;4960231;28;9571;-75
2021/09/12 06:23:58;;;;;;;;;13.00;12.00;;;;;;;;4962271;28;9531;-76
2021/09/12 06:26:26;;;;;;;;;10.00;9.75;;;;;;;;4963309;28;9519;-76
2021/09/12 06:28:54;;;;;;;;;14.25;12.25;;;;;;;;4962436;28;9602;-72
2021/09/12 06:31:21;;;;;;;;;10.67;10.67;;;;;;;;4961752;28;9477;-72
2021/09/12 06:33:49;;;;;;;;;14.00;14.00;;;;;;;;4959717;28;9479;-73
2021/09/12 06:36:18;;;;;;;;;18.25;17.00;;;;;;;;4961513;28;9437;-71
2021/09/12 06:38:46;;;;;;;;;11.33;11.33;;;;;;;;4966077;28;9504;-72
2021/09/12 06:41:14;;;;;;;;;17.00;17.00;;;;;;;;4961389;28;9433;-72
2021/09/12 06:43:42;;;;;;;;;11.33;10.00;;;;;;;;4964662;28;9563;-72
2021/09/12 06:46:10;;;;;;;;;23.00;19.00;;;;;;;;4955827;28;9320;-72
2021/09/12 06:48:37;;;;;;;;;15.00;15.00;;;;;;;;4958261;28;9442;-71
2021/09/12 06:51:04;;;;;;;;;16.00;16.00;;;;;;;;4959900;28;9263;-79
2021/09/12 06:53:33;;;;;;;;;18.00;16.33;;;;;;;;4964092;28;9306;-75
2021/09/12 06:56:00;;;;;;;;;14.33;14.33;;;;;;;;4963916;28;9296;-76
2021/09/12 06:58:31;;;;;;;;;18.67;17.00;;;;;;;;4965005;28;9035;-76
2021/09/12 07:00:58;;;;;;;;;17.00;17.00;;;;;;;;4961320;28;9203;-76
2021/09/12 07:03:26;;;;;;;;;16.00;13.33;;;;;;;;4962109;28;8963;-74
2021/09/12 07:05:54;;;;;;;;;19.00;19.00;;;;;;;;4965023;28;9043;-76
2021/09/12 07:08:21;;;;;;;;;17.67;17.67;;;;;;;;4956249;28;9554;-73
2021/09/12 07:10:50;;;;;;;;;18.00;18.00;;;;;;;;4963265;28;9232;-75
2021/09/12 07:13:17;;;;;;;;;17.00;17.00;;;;;;;;4958038;28;9232;-74
2021/09/12 07:15:45;;;;;;;;;19.25;19.00;;;;;;;;4963761;28;9138;-76
2021/09/12 07:18:12;;;;;;;;;19.00;19.00;;;;;;;;4964593;28;8985;-77
2021/09/12 07:20:40;;;;;;;;;22.25;21.25;;;;;;;;4963149;28;8896;-77
2021/09/12 07:23:07;;;;;;;;;20.00;19.25;;;;;;;;4964948;28;8881;-78
2021/09/12 07:25:35;;;;;;;;;25.00;24.75;;;;;;;;4963309;28;8900;-78
2021/09/12 07:28:04;;;;;;;;;24.00;21.67;;;;;;;;4965532;28;8877;-78
2021/09/12 07:30:31;;;;;;;;;25.25;22.50;;;;;;;;4963543;28;8976;-78
2021/09/12 07:32:58;;;;;;;;;22.25;22.25;;;;;;;;4965293;28;8893;-78
2021/09/12 07:35:25;;;;;;;;;21.75;20.75;;;;;;;;4964803;28;8987;-77
2021/09/12 07:37:53;;;;;;;;;20.00;20.00;;;;;;;;4968030;28;8871;-77
2021/09/12 07:40:20;;;;;;;;;24.00;23.25;;;;;;;;4966781;28;9000;-78
2021/09/12 07:42:49;;;;;;;;;26.25;23.50;;;;;;;;4962483;28;8955;-78
2021/09/12 07:45:17;;;;;;;;;25.50;20.50;;;;;;;;4963068;28;8877;-77
2021/09/12 07:47:45;;;;;;;;;22.50;21.25;;;;;;;;4953121;28;8852;-78
2021/09/12 07:50:13;;;;;;;;;22.00;22.00;;;;;;;;4955442;28;8893;-78
2021/09/12 07:52:42;;;;;;;;;23.75;23.00;;;;;;;;4964535;28;8908;-78
2021/09/12 07:55:10;;;;;;;;;22.50;22.50;;;;;;;;4962558;28;8895;-77
2021/09/12 07:57:38;;;;;;;;;22.25;20.50;;;;;;;;4965453;28;8865;-78
2021/09/12 08:00:08;;;;;;;;;20.25;17.00;;;;;;;;4963124;28;8890;-78
2021/09/12 08:02:36;;;;;;;;;22.25;22.25;;;;;;;;4963893;28;8892;-78
2021/09/12 08:05:05;;;;;;;;;19.25;18.00;;;;;;;;4963379;28;8920;-78
2021/09/12 08:07:32;;;;;;;;;19.75;19.75;;;;;;;;4964348;28;8886;-78
2021/09/12 08:10:00;;;;;;;;;17.00;16.75;;;;;;;;4963476;28;8895;-77
2021/09/12 08:12:28;;;;;;;;;15.00;14.25;;;;;;;;4964704;28;8932;-78
2021/09/12 08:14:55;;;;;;;;;12.75;12.75;;;;;;;;4967619;28;8877;-79
2021/09/12 08:17:23;;;;;;;;;13.50;12.25;;;;;;;;4965830;28;8865;-77
2021/09/12 08:19:52;;;;;;;;;9.75;9.00;;;;;;;;4967031;28;8865;-78
2021/09/12 08:22:20;;;;;;;;;9.00;8.75;;;;;;;;4967544;28;9632;-78
2021/09/12 08:24:47;;;;;;;;;12.75;10.50;;;;;;;;4953564;28;9727;-78
2021/09/12 08:27:14;;;;;;;;;5.75;5.00;;;;;;;;4968025;28;8896;-78
2021/09/12 08:29:42;;;;;;;;;5.75;5.75;;;;;;;;4965903;28;8865;-78
2021/09/12 08:32:09;;;;;;;;;4.00;4.00;;;;;;;;4966923;28;8924;-78
2021/09/12 08:34:36;;;;;;;;;7.00;7.00;;;;;;;;4967177;28;8885;-78
2021/09/12 08:37:06;;;;;;;;;6.50;5.50;;;;;;;;4968514;28;9007;-78
2021/09/12 08:39:33;;;;;;;;;9.00;8.75;;;;;;;;4956195;28;8907;-78
2021/09/12 08:42:00;;;;;;;;;7.50;6.00;;;;;;;;4968094;28;8940;-78
2021/09/12 08:44:27;;;;;;;;;10.60;6.60;;;;;;;;4964778;28;9008;-78
2021/09/12 08:46:55;;;;;;;;;7.00;7.00;;;;;;;;4966955;28;8927;-78
2021/09/12 08:49:22;;;;;;;;;7.80;7.80;;;;;;;;4967319;28;9741;-77
2021/09/12 08:51:49;;;;;;;;;4.00;4.00;;;;;;;;4969502;28;8893;-78
2021/09/12 08:54:19;;;;;;;;;5.40;5.40;;;;;;;;4966779;28;8865;-79
2021/09/12 08:56:47;;;;;;;;;4.40;4.40;;;;;;;;4954512;28;8948;-79
2021/09/12 08:59:27;;;;;;;;;4.80;4.80;;;;;;;;4969245;28;8881;-79
2021/09/12 09:01:59;;;;;;;;;2.40;2.40;;;;;;;;4958876;28;8948;-79
2021/09/12 09:04:28;;;;;;;;;1.20;1.20;;;;;;;;4968333;28;8866;-79
2021/09/12 09:07:03;;;;;;;;;5.40;5.20;;;;;;;;4960450;28;8876;-79
2021/09/12 09:09:46;;;;;;;;;7.20;7.20;;;;;;;;4966115;28;9627;-79
2021/09/12 09:12:32;;;;;;;;;6.60;6.60;;;;;;;;4955674;28;8982;-80
2021/09/12 09:15:10;;;;;;;;;3.80;3.80;;;;;;;;4967600;28;8881;-79
2021/09/12 09:17:40;;;;;;;;;4.60;4.60;;;;;;;;4968140;28;8862;-79
2021/09/12 09:20:09;;;;;;;;;3.00;3.00;;;;;;;;4967800;28;8862;-79
2021/09/12 09:22:37;;;;;;;;;3.00;3.00;;;;;;;;4955277;28;8925;-79
2021/09/12 09:25:12;;;;;;;;;6.40;4.40;;;;;;;;4967825;28;8865;-79
2021/09/12 09:28:07;;;;;;;;;3.20;3.00;;;;;;;;4966877;28;8881;-79
2021/09/12 09:30:37;;;;;;;;;3.60;3.60;;;;;;;;4954925;28;9570;-78
2021/09/12 09:33:15;;;;;;;;;3.60;3.60;;;;;;;;4966610;28;8906;-79
2021/09/12 09:35:55;;;;;;;;;4.40;3.00;;;;;;;;4958249;28;8934;-78
2021/09/12 09:38:25;;;;;;;;;3.80;3.00;;;;;;;;4957298;28;9560;-79
2021/09/12 09:40:59;;;;;;;;;1.80;1.80;;;;;;;;4966702;28;8905;-79
2021/09/12 09:43:40;;;;;;;;;3.20;3.20;;;;;;;;4968664;28;8869;-78
2021/09/12 09:46:08;;;;;;;;;2.00;2.00;;;;;;;;4966317;28;9043;-78
2021/09/12 09:48:35;;;;;;;;;2.60;2.60;;;;;;;;4961263;28;8901;-77
2021/09/12 09:51:04;;;;;;;;;1.00;1.00;;;;;;;;4967856;28;8881;-78
2021/09/12 09:53:35;;;;;;;;;1.40;1.40;;;;;;;;4966931;28;8901;-79
2021/09/12 09:56:05;;;;;;;;;2.80;1.60;;;;;;;;4967296;28;8889;-79
2021/09/12 09:58:33;;;;;;;;;2.00;2.00;;;;;;;;4966436;28;8947;-78
2021/09/12 10:01:02;;;;;;;;;2.80;2.80;;;;;;;;4965633;28;8948;-77
2021/09/12 10:03:32;;;;;;;;;1.20;1.20;;;;;;;;4963134;28;8861;-79
2021/09/12 10:06:00;;;;;;;;;2.60;1.00;;;;;;;;4959407;28;8901;-77
2021/09/12 10:08:27;;;;;;;;;1.40;1.40;;;;;;;;4961404;28;8878;-78
2021/09/12 10:10:55;;;;;;;;;2.00;2.00;;;;;;;;4964149;28;8889;-77
2021/09/12 10:13:26;;;;;;;;;1.80;1.80;;;;;;;;4967003;28;9636;-77
2021/09/12 10:15:56;;;;;;;;;5.00;3.00;;;;;;;;4960374;28;8937;-77
2021/09/12 10:18:26;;;;;;;;;4.00;4.00;;;;;;;;4958774;28;8881;-77
2021/09/12 10:20:54;;;;;;;;;1.60;1.60;;;;;;;;4964548;28;8885;-76
2021/09/12 10:23:22;;;;;;;;;8.00;8.00;;;;;;;;4966557;28;8881;-77
2021/09/12 10:25:59;;;;;;;;;3.20;3.20;;;;;;;;4965730;28;8873;-77
2021/09/12 10:28:32;;;;;;;;;2.00;2.00;;;;;;;;4965611;28;8959;-78
2021/09/12 10:31:00;;;;;;;;;1.00;1.00;;;;;;;;4962950;28;8825;-78
2021/09/12 10:33:28;;;;;;;;;1.60;1.60;;;;;;;;4965466;28;8884;-77
2021/09/12 10:36:01;;;;;;;;;3.80;2.80;;;;;;;;4965982;28;8924;-77
2021/09/12 10:38:35;;;;;;;;;1.80;1.80;;;;;;;;4973408;28;8898;-76
2021/09/12 10:41:27;;;;;;;;;2.00;0.80;;;;;;;;4963626;28;8902;-76
2021/09/12 10:43:56;;;;;;;;;1.40;1.00;;;;;;;;4955818;28;8915;-76
2021/09/12 10:46:32;;;;;;;;;1.80;1.80;;;;;;;;4957750;28;8867;-77
2021/09/12 10:49:13;;;;;;;;;4.40;3.80;;;;;;;;4951668;28;8871;-76
2021/09/12 10:51:44;;;;;;;;;2.00;2.00;;;;;;;;4963629;28;9777;-76
2021/09/12 10:54:12;;;;;;;;;3.40;1.80;;;;;;;;4965385;28;8885;-76
2021/09/12 10:56:40;;;;;;;;;2.40;2.40;;;;;;;;4946788;28;8880;-76
2021/09/12 10:59:14;;;;;;;;;3.80;2.80;;;;;;;;4958707;28;9706;-76
2021/09/12 11:01:45;;;;;;;;;3.00;3.00;;;;;;;;4965396;28;8833;-79
2021/09/12 11:04:14;;;;;;;;;3.00;3.00;;;;;;;;4964154;28;8900;-77
2021/09/12 11:06:44;;;;;;;;;2.20;2.20;;;;;;;;4961840;28;8887;-77
2021/09/12 11:09:20;;;;;;;;;2.60;2.60;;;;;;;;4965451;28;8866;-77
2021/09/12 11:11:47;;;;;;;;;3.60;3.60;;;;;;;;4960958;28;8879;-77
2021/09/12 11:14:20;;;;;;;;;6.00;6.00;;;;;;;;4964541;28;8865;-77
2021/09/12 11:16:47;;;;;;;;;5.80;5.80;;;;;;;;4964642;28;8889;-77
2021/09/12 11:19:15;;;;;;;;;4.00;3.80;;;;;;;;4965625;28;8853;-77
2021/09/12 11:21:45;;;;;;;;;1.60;1.60;;;;;;;;4964531;28;8881;-77
2021/09/12 11:24:13;;;;;;;;;2.80;2.80;;;;;;;;4965036;28;8882;-77
2021/09/12 11:26:43;;;;;;;;;6.40;5.00;;;;;;;;4965099;28;9008;-76
2021/09/12 11:29:12;;;;;;;;;5.80;5.00;;;;;;;;4963082;28;8869;-76
2021/09/12 11:31:42;;;;;;;;;3.00;3.00;;;;;;;;4964455;28;8870;-76
2021/09/12 11:34:10;;;;;;;;;2.80;2.80;;;;;;;;4962657;28;8885;-77
2021/09/12 11:36:45;;;;;;;;;2.00;2.00;;;;;;;;4965572;28;8861;-76
2021/09/12 11:39:14;;;;;;;;;2.20;2.20;;;;;;;;4963765;28;8912;-76
2021/09/12 11:41:42;;;;;;;;;2.80;2.80;;;;;;;;4964720;28;8939;-76
2021/09/12 11:44:10;;;;;;;;;2.00;1.80;;;;;;;;4965209;28;8881;-76
2021/09/12 11:46:47;;;;;;;;;2.00;2.00;;;;;;;;4964784;28;8928;-76
2021/09/12 11:49:16;;;;;;;;;2.00;1.00;;;;;;;;4966174;28;8897;-76
2021/09/12 11:51:46;;;;;;;;;2.20;2.20;;;;;;;;4964478;28;9674;-76
2021/09/12 11:54:19;;;;;;;;;1.80;1.80;;;;;;;;4966747;28;8903;-76
2021/09/12 11:56:54;;;;;;;;;5.80;3.80;;;;;;;;4960523;28;8885;-78
2021/09/12 11:59:22;;;;;;;;;4.20;4.20;;;;;;;;4968607;28;8931;-76
2021/09/12 12:01:53;;;;;;;;;3.00;3.00;;;;;;;;4966264;28;8816;-75
2021/09/12 12:04:21;;;;;;;;;2.00;2.00;;;;;;;;4960655;28;8873;-76
2021/09/12 12:06:50;;;;;;;;;2.80;2.80;;;;;;;;4967885;28;9000;-78
2021/09/12 12:09:25;;;;;;;;;2.00;2.00;;;;;;;;4965620;28;8869;-78
2021/09/12 12:11:53;;;;;;;;;2.40;2.40;;;;;;;;4957924;28;8908;-78
2021/09/12 12:14:23;;;;;;;;;2.00;2.00;;;;;;;;4967813;28;9614;-78
2021/09/12 12:16:53;;;;;;;;;2.20;2.20;;;;;;;;4968153;28;9691;-77
2021/09/12 12:19:22;;;;;;;;;2.00;2.00;;;;;;;;4961756;28;8952;-79
2021/09/12 12:21:51;;;;;;;;;2.40;2.40;;;;;;;;4968413;28;9722;-77
2021/09/12 12:24:20;;;;;;;;;1.60;1.60;;;;;;;;4968737;28;9542;-77
2021/09/12 12:26:50;;;;;;;;;2.00;2.00;;;;;;;;4967719;28;8907;-77
2021/09/12 12:29:29;;;;;;;;;4.20;3.00;;;;;;;;4968555;28;8905;-78
2021/09/12 12:32:00;;;;;;;;;2.80;2.80;;;;;;;;4963029;28;9624;-78
2021/09/12 12:34:39;;;;;;;;;3.00;3.00;;;;;;;;4962646;28;8895;-77
2021/09/12 12:37:06;;;;;;;;;1.80;1.80;;;;;;;;4966319;28;9687;-78
2021/09/12 12:39:34;;;;;;;;;4.60;3.40;;;;;;;;4962914;28;8884;-77
2021/09/12 12:42:02;;;;;;;;;1.80;1.80;;;;;;;;4957933;28;8876;-78
2021/09/12 12:44:29;;;;;;;;;2.00;2.00;;;;;;;;4966452;28;8873;-77
2021/09/12 12:46:58;;;;;;;;;2.40;2.40;;;;;;;;4967719;28;8889;-77
2021/09/12 12:49:27;;;;;;;;;3.40;3.40;;;;;;;;4963550;28;8892;-77
2021/09/12 12:52:06;;;;;;;;;2.20;2.20;;;;;;;;4964348;28;8943;-79
2021/09/12 12:54:34;;;;;;;;;2.20;2.20;;;;;;;;4968110;28;8888;-78
2021/09/12 12:57:02;;;;;;;;;4.80;4.80;;;;;;;;4966356;28;8885;-78
2021/09/12 12:59:30;;;;;;;;;1.80;1.80;;;;;;;;4967114;28;8877;-78
2021/09/12 13:01:58;;;;;;;;;2.00;2.00;;;;;;;;4955287;28;10407;-78
2021/09/12 13:04:26;;;;;;;;;2.00;2.00;;;;;;;;4956751;28;8901;-78
2021/09/12 13:06:53;;;;;;;;;0.80;0.80;;;;;;;;4966302;28;8852;-78
2021/09/12 13:09:20;;;;;;;;;1.20;1.20;;;;;;;;4964366;28;8942;-78
2021/09/12 13:11:48;;;;;;;;;2.00;2.00;;;;;;;;4963197;28;8878;-78
2021/09/12 13:14:15;;;;;;;;;2.00;2.00;;;;;;;;4967832;28;8874;-78
2021/09/12 13:16:43;;;;;;;;;1.80;1.80;;;;;;;;4965439;28;8876;-78
2021/09/12 13:19:12;;;;;;;;;3.60;3.00;;;;;;;;4964327;28;8861;-78
2021/09/12 13:21:39;;;;;;;;;2.00;2.00;;;;;;;;4976642;28;8895;-78
2021/09/12 13:24:07;;;;;;;;;1.80;1.80;;;;;;;;4963527;28;8869;-78
2021/09/12 13:26:34;;;;;;;;;1.80;1.80;;;;;;;;4965692;28;9742;-79
2021/09/12 13:29:02;;;;;;;;;1.60;1.60;;;;;;;;4965485;28;8911;-78
2021/09/12 13:31:32;;;;;;;;;2.80;2.80;;;;;;;;4964678;28;8836;-78
2021/09/12 13:34:00;;;;;;;;;2.60;2.60;;;;;;;;4962624;28;8896;-79
2021/09/12 13:36:30;;;;;;;;;3.80;2.40;;;;;;;;4963950;28;9103;-78
2021/09/12 13:38:58;;;;;;;;;4.40;2.60;;;;;;;;4965532;28;9493;-77
2021/09/12 13:41:25;;;;;;;;;2.80;2.80;;;;;;;;4963575;28;8861;-77
2021/09/12 13:43:53;;;;;;;;;3.20;3.20;;;;;;;;4962309;28;9715;-77
2021/09/12 13:46:20;;;;;;;;;1.80;1.80;;;;;;;;4959857;28;8891;-77
2021/09/12 13:48:47;;;;;;;;;3.00;2.00;;;;;;;;4959819;28;8901;-77
2021/09/12 13:51:15;;;;;;;;;2.00;2.00;;;;;;;;4963961;28;8903;-77
2021/09/12 13:53:44;;;;;;;;;2.40;1.80;;;;;;;;4961402;28;8959;-77
2021/09/12 13:56:11;;;;;;;;;1.20;1.20;;;;;;;;4960438;28;8876;-77
2021/09/12 13:58:39;;;;;;;;;2.80;2.80;;;;;;;;4960040;28;8945;-77
2021/09/12 14:01:06;;;;;;;;;1.80;1.80;;;;;;;;4965746;28;8802;-77
2021/09/12 14:03:34;;;;;;;;;3.40;1.20;;;;;;;;4966487;28;9680;-77
2021/09/12 14:06:01;;;;;;;;;1.60;1.60;;;;;;;;4963416;28;8865;-77
2021/09/12 14:08:28;;;;;;;;;1.00;1.00;;;;;;;;4967110;28;9000;-77
2021/09/12 14:10:59;;;;;;;;;1.80;1.80;;;;;;;;4963817;28;8866;-77
2021/09/12 14:13:31;;;;;;;;;1.60;1.60;;;;;;;;4953595;28;9016;-77
2021/09/12 14:15:58;;;;;;;;;1.40;1.40;;;;;;;;4973222;28;8900;-78
2021/09/12 14:18:25;;;;;;;;;1.40;1.40;;;;;;;;4964582;28;8874;-77
2021/09/12 14:20:53;;;;;;;;;1.00;1.00;;;;;;;;4957296;28;8853;-77
2021/09/12 14:23:20;;;;;;;;;1.00;1.00;;;;;;;;4964619;28;8915;-77
2021/09/12 14:25:48;;;;;;;;;1.20;1.20;;;;;;;;4966532;28;8919;-78
2021/09/12 14:28:16;;;;;;;;;1.80;1.80;;;;;;;;4962910;28;9008;-77
2021/09/12 14:30:44;;;;;;;;;1.40;1.40;;;;;;;;4958586;28;8960;-76
2021/09/12 14:33:11;;;;;;;;;2.20;2.20;;;;;;;;4953344;28;8866;-76
2021/09/12 14:35:39;;;;;;;;;1.00;1.00;;;;;;;;4965351;28;9287;-76
2021/09/12 14:38:07;;;;;;;;;1.00;1.00;;;;;;;;4964692;28;8857;-77
2021/09/12 14:40:35;;;;;;;;;1.00;1.00;;;;;;;;4963617;28;8881;-76
2021/09/12 14:43:03;;;;;;;;;2.80;2.80;;;;;;;;4966325;28;9650;-77
2021/09/12 14:45:32;;;;;;;;;3.00;2.20;;;;;;;;4964957;28;8897;-77
2021/09/12 14:47:59;;;;;;;;;1.60;1.60;;;;;;;;4963670;28;8861;-77
2021/09/12 14:50:28;;;;;;;;;2.00;2.00;;;;;;;;4959221;28;8911;-77
2021/09/12 14:52:55;;;;;;;;;2.00;2.00;;;;;;;;4966428;28;9032;-78